Time;durP1;ratioP1;P1;durP2;ratioP2;P2;SDS_P1;SDS_P2;PMS_P1;PMS_P2;Temp;Humidity;BMP_temperature;BMP_pressure;BME280_temperature;BME280_humidity;BME280_pressure;Samples;Min_cycle;Max_cycle;Signal;HPM_P1;HPM_P2
2021/07/16 00:00:07;;;;;;;12.07;6.47;;;;;;;18.18;70.09;101642.53;5076372;28;20499;-61
2021/07/16 00:02:34;;;;;;;13.20;6.72;;;;;;;18.16;70.74;101640.09;5076364;28;20048;-62
2021/07/16 00:05:02;;;;;;;11.68;7.15;;;;;;;18.30;70.26;101631.44;5076061;28;20495;-62
2021/07/16 00:07:30;;;;;;;12.38;7.47;;;;;;;17.92;71.63;101631.63;5058653;28;20071;-61
2021/07/16 00:09:57;;;;;;;16.95;7.38;;;;;;;18.18;71.24;101636.97;5076205;28;20048;-62
2021/07/16 00:12:24;;;;;;;16.17;7.70;;;;;;;17.84;72.21;101633.31;5041824;28;20377;-61
2021/07/16 00:14:52;;;;;;;16.50;7.80;;;;;;;17.80;72.54;101639.91;5075346;28;20056;-61
2021/07/16 00:17:19;;;;;;;14.98;8.13;;;;;;;17.56;73.90;101629.44;5057559;28;20048;-62
2021/07/16 00:19:46;;;;;;;15.30;7.88;;;;;;;17.71;73.76;101633.59;5076168;28;20561;-61
2021/07/16 00:22:13;;;;;;;14.02;8.07;;;;;;;17.73;73.40;101629.28;5076748;28;20415;-61
2021/07/16 00:24:41;;;;;;;17.85;7.85;;;;;;;17.73;73.49;101634.88;5058365;28;20056;-61
2021/07/16 00:27:08;;;;;;;15.15;7.90;;;;;;;17.47;74.19;101639.00;5076020;28;20052;-60
2021/07/16 00:29:35;;;;;;;17.25;8.05;;;;;;;17.52;74.27;101624.88;5058249;28;20053;-62
2021/07/16 00:32:03;;;;;;;13.35;8.27;;;;;;;17.61;73.86;101629.22;5057379;28;20424;-61
2021/07/16 00:34:30;;;;;;;12.80;8.27;;;;;;;17.58;74.18;101629.09;5075761;28;20051;-61
2021/07/16 00:36:57;;;;;;;13.93;7.85;;;;;;;17.47;74.55;101628.66;5075570;28;20048;-62
2021/07/16 00:39:24;;;;;;;13.48;7.50;;;;;;;17.63;73.84;101628.88;5075965;28;20052;-60
2021/07/16 00:41:52;;;;;;;12.55;7.90;;;;;;;17.94;72.52;101632.06;5057897;28;20052;-61
2021/07/16 00:44:21;;;;;;;12.65;7.97;;;;;;;17.84;72.72;101630.53;5076140;28;20059;-60
2021/07/16 00:46:49;;;;;;;15.93;7.80;;;;;;;17.99;72.13;101627.13;5075536;28;20044;-60
2021/07/16 00:49:16;;;;;;;17.85;8.45;;;;;;;17.66;73.55;101637.38;5075491;28;20051;-61
2021/07/16 00:51:45;;;;;;;13.23;8.20;;;;;;;17.78;73.48;101629.09;5075616;28;20064;-61
2021/07/16 00:54:13;;;;;;;12.57;7.63;;;;;;;18.01;72.56;101632.34;5075583;28;20063;-60
2021/07/16 00:56:40;;;;;;;15.77;7.80;;;;;;;17.95;72.66;101630.94;5067782;28;20052;-62
2021/07/16 00:59:07;;;;;;;13.38;7.40;;;;;;;18.00;72.54;101633.50;5096022;28;20063;-62
2021/07/16 01:01:35;;;;;;;15.75;7.07;;;;;;;17.73;73.65;101634.88;5078007;28;20066;-62
2021/07/16 01:04:02;;;;;;;12.05;7.10;;;;;;;17.68;73.67;101642.59;5095687;28;20155;-61
2021/07/16 01:06:29;;;;;;;14.52;7.22;;;;;;;17.77;73.69;101630.25;5095636;28;20367;-61
2021/07/16 01:08:57;;;;;;;12.38;7.32;;;;;;;17.87;73.69;101638.19;5095858;28;20056;-61
2021/07/16 01:11:24;;;;;;;13.68;7.50;;;;;;;17.91;73.01;101629.97;5095598;28;20505;-62
2021/07/16 01:13:51;;;;;;;12.82;7.35;;;;;;;18.10;72.45;101629.50;5077575;28;20702;-62
2021/07/16 01:16:19;;;;;;;16.60;7.13;;;;;;;17.71;74.22;101628.03;5077232;28;20059;-62
2021/07/16 01:18:46;;;;;;;15.27;7.28;;;;;;;17.73;74.51;101626.50;5095102;28;20381;-62
2021/07/16 01:21:14;;;;;;;14.77;6.82;;;;;;;17.75;74.26;101656.81;5095367;28;20048;-60
2021/07/16 01:23:42;;;;;;;10.68;6.75;;;;;;;17.53;75.40;101638.47;5077418;28;20419;-59
2021/07/16 01:26:09;;;;;;;14.35;7.38;;;;;;;17.79;74.67;101629.91;5095018;28;20051;-60
2021/07/16 01:28:38;;;;;;;12.50;7.10;;;;;;;17.70;75.04;101627.19;5060775;28;20032;-60
2021/07/16 01:31:08;;;;;;;12.63;7.18;;;;;;;17.76;74.91;101639.78;5076944;28;20052;-62
2021/07/16 01:33:36;;;;;;;16.70;6.97;;;;;;;17.73;74.75;101643.22;5095084;28;20388;-61
2021/07/16 01:36:03;;;;;;;12.70;7.47;;;;;;;17.40;76.29;101653.41;5094276;28;20048;-62
2021/07/16 01:38:31;;;;;;;16.00;7.15;;;;;;;17.34;76.95;101640.03;5094933;28;20052;-62
2021/07/16 01:40:58;;;;;;;13.27;7.38;;;;;;;17.18;77.59;101637.00;5076405;28;20063;-60
2021/07/16 01:43:26;;;;;;;13.52;7.35;;;;;;;17.26;77.67;101644.47;5094950;28;20044;-61
2021/07/16 01:45:53;;;;;;;12.35;7.45;;;;;;;17.49;76.47;101642.25;5094616;28;20051;-61
2021/07/16 01:48:20;;;;;;;11.23;6.80;;;;;;;17.38;76.94;101644.56;5094716;28;20048;-61
2021/07/16 01:50:49;;;;;;;13.38;7.45;;;;;;;17.39;76.92;101642.59;5094673;28;20044;-62
2021/07/16 01:53:18;;;;;;;10.18;6.80;;;;;;;17.46;76.55;101652.09;5094642;28;20055;-61
2021/07/16 01:55:47;;;;;;;16.38;7.25;;;;;;;17.58;76.20;101638.25;5074093;28;20063;-62
2021/07/16 01:58:15;;;;;;;12.80;6.75;;;;;;;17.73;75.32;101650.78;5055974;28;20049;-62
2021/07/16 02:00:45;;;;;;;13.27;6.85;;;;;;;17.61;75.72;101643.16;5074468;28;20048;-60
2021/07/16 02:03:15;;;;;;;14.60;6.97;;;;;;;17.56;75.94;101643.34;5056364;28;20139;-60
2021/07/16 02:05:45;;;;;;;11.98;6.68;;;;;;;17.63;75.55;101638.06;5074428;28;20049;-61
2021/07/16 02:08:21;;;;;;;11.57;6.73;;;;;;;17.54;76.68;101640.09;5074115;28;20052;-64
2021/07/16 02:10:52;;;;;;;10.40;6.50;;;;;;;17.73;75.49;101634.06;5074215;28;20305;-62
2021/07/16 02:13:20;;;;;;;13.40;6.30;;;;;;;17.77;74.77;101641.41;5073666;28;20053;-62
2021/07/16 02:15:49;;;;;;;10.88;6.93;;;;;;;17.42;76.59;101645.53;5056579;28;20052;-62
2021/07/16 02:18:17;;;;;;;10.45;6.57;;;;;;;17.41;76.68;101646.69;5073819;28;20051;-62
2021/07/16 02:20:45;;;;;;;15.52;6.40;;;;;;;17.41;77.23;101641.13;5056096;28;20052;-61
2021/07/16 02:23:18;;;;;;;17.48;7.50;;;;;;;17.23;77.96;101633.19;5056744;28;20048;-61
2021/07/16 02:25:45;;;;;;;12.57;6.20;;;;;;;17.44;77.61;101636.84;5074210;28;20052;-61
2021/07/16 02:28:15;;;;;;;13.35;6.95;;;;;;;17.30;77.87;101623.16;5073841;28;20044;-62
2021/07/16 02:30:42;;;;;;;11.25;6.63;;;;;;;17.45;77.06;101636.50;5074311;28;20055;-61
2021/07/16 02:33:10;;;;;;;11.90;6.50;;;;;;;17.35;77.51;101627.72;5073795;28;20518;-61
2021/07/16 02:35:37;;;;;;;12.15;6.93;;;;;;;17.59;76.68;101623.16;5073690;28;20067;-62
2021/07/16 02:38:05;;;;;;;11.30;6.57;;;;;;;17.46;76.91;101624.25;5055630;28;20083;-61
2021/07/16 02:40:34;;;;;;;15.50;6.38;;;;;;;17.39;77.47;101629.50;5073613;28;20040;-62
2021/07/16 02:43:02;;;;;;;14.85;6.47;;;;;;;17.56;77.06;101632.22;5073187;28;20063;-62
2021/07/16 02:45:30;;;;;;;10.65;6.07;;;;;;;17.48;77.31;101635.88;5073797;28;20044;-62
2021/07/16 02:47:58;;;;;;;10.65;6.22;;;;;;;17.44;77.52;101640.44;5073214;28;20044;-60
2021/07/16 02:50:32;;;;;;;10.20;6.35;;;;;;;17.42;77.89;101631.59;5055672;28;20044;-61
2021/07/16 02:53:05;;;;;;;12.70;6.38;;;;;;;17.47;77.84;101628.66;5073040;28;20044;-61
2021/07/16 02:55:34;;;;;;;11.98;5.68;;;;;;;17.51;77.67;101632.41;5055718;28;20056;-62
2021/07/16 02:58:01;;;;;;;12.48;6.00;;;;;;;17.72;76.74;101630.47;5093515;28;20048;-62
2021/07/16 03:00:29;;;;;;;13.70;6.30;;;;;;;17.78;76.49;101631.09;5093832;28;20399;-62
2021/07/16 03:02:58;;;;;;;13.20;5.93;;;;;;;17.64;77.08;101631.31;5075788;28;20054;-62
2021/07/16 03:05:30;;;;;;;11.55;5.75;;;;;;;17.59;77.50;101636.31;5093476;28;20479;-62
2021/07/16 03:07:58;;;;;;;14.48;6.10;;;;;;;17.48;78.15;101629.47;5093367;28;20052;-62
2021/07/16 03:10:32;;;;;;;13.07;6.03;;;;;;;17.41;78.70;101638.34;5093540;28;20051;-62
2021/07/16 03:13:02;;;;;;;12.65;6.75;;;;;;;17.41;79.14;101638.34;5093604;28;20044;-62
2021/07/16 03:15:29;;;;;;;16.25;6.43;;;;;;;17.60;78.41;101643.50;5093669;28;20414;-61
2021/07/16 03:17:57;;;;;;;12.02;6.45;;;;;;;17.41;79.13;101631.94;5074904;28;20048;-61
2021/07/16 03:20:31;;;;;;;13.55;6.30;;;;;;;17.36;79.50;101632.16;5093435;28;20052;-60
2021/07/16 03:22:58;;;;;;;12.95;6.32;;;;;;;17.44;79.44;101640.44;5093599;28;20063;-62
2021/07/16 03:25:27;;;;;;;11.40;5.95;;;;;;;17.47;79.30;101639.81;5075491;28;20055;-62
2021/07/16 03:27:55;;;;;;;13.75;5.90;;;;;;;17.42;79.56;101647.50;5093146;28;20046;-61
2021/07/16 03:30:27;;;;;;;12.20;5.80;;;;;;;17.41;79.49;101641.13;5093590;28;20048;-61
2021/07/16 03:32:57;;;;;;;14.48;6.35;;;;;;;17.19;80.95;101644.19;5093518;28;20387;-62
2021/07/16 03:35:25;;;;;;;11.90;5.70;;;;;;;17.39;80.08;101645.41;5074639;28;20059;-62
2021/07/16 03:37:53;;;;;;;11.02;5.95;;;;;;;17.60;78.97;101652.69;5075047;28;20514;-61
2021/07/16 03:40:27;;;;;;;12.35;5.63;;;;;;;17.50;79.37;101644.72;5093653;28;20048;-62
2021/07/16 03:42:57;;;;;;;15.38;5.40;;;;;;;17.43;79.90;101638.00;5093975;28;20056;-62
2021/07/16 03:45:25;;;;;;;14.88;6.05;;;;;;;17.43;79.95;101643.59;5093629;28;20044;-62
2021/07/16 03:47:52;;;;;;;9.73;5.60;;;;;;;17.45;80.05;101641.28;5093079;28;20048;-60
2021/07/16 03:50:21;;;;;;;14.73;5.78;;;;;;;17.77;78.35;101638.63;5074902;28;20522;-61
2021/07/16 03:52:49;;;;;;;10.93;5.88;;;;;;;17.75;77.78;101638.13;5093090;28;20044;-62
2021/07/16 03:55:17;;;;;;;16.08;5.70;;;;;;;17.68;77.95;101640.66;5093310;28;20651;-62
2021/07/16 03:57:49;;;;;;;10.05;5.45;;;;;;;17.39;79.65;101635.09;5073619;28;20044;-61
2021/07/16 04:00:24;;;;;;;11.38;5.30;;;;;;;17.35;79.88;101642.47;5074433;28;20791;-60
2021/07/16 04:02:51;;;;;;;9.48;5.15;;;;;;;17.23;80.90;101642.38;5058698;28;20059;-61
2021/07/16 04:05:19;;;;;;;14.90;5.00;;;;;;;17.21;81.31;101633.53;5057741;28;20068;-62
2021/07/16 04:07:47;;;;;;;9.23;5.38;;;;;;;17.32;80.58;101634.78;5076235;28;20059;-62
2021/07/16 04:10:17;;;;;;;12.20;5.18;;;;;;;17.27;80.97;101648.09;5076405;28;20056;-61
2021/07/16 04:12:57;;;;;;;12.00;5.30;;;;;;;17.15;81.65;101645.19;5058584;28;20065;-62
2021/07/16 04:15:26;;;;;;;11.88;5.00;;;;;;;17.27;81.10;101640.56;5058653;28;20052;-62
2021/07/16 04:17:54;;;;;;;13.23;5.10;;;;;;;17.21;81.73;101635.53;5075905;28;20048;-60
2021/07/16 04:20:23;;;;;;;10.20;5.35;;;;;;;17.51;80.32;101645.50;5076166;28;20063;-61
2021/07/16 04:22:50;;;;;;;13.95;5.60;;;;;;;17.44;80.13;101643.25;5076186;28;20052;-61
2021/07/16 04:25:18;;;;;;;13.73;5.68;;;;;;;17.64;79.64;101642.47;5076152;28;20052;-61
2021/07/16 04:27:48;;;;;;;10.70;5.55;;;;;;;17.45;80.39;101644.06;5075913;28;20073;-62
2021/07/16 04:30:18;;;;;;;12.00;5.10;;;;;;;17.52;80.09;101645.16;5075999;28;20056;-62
2021/07/16 04:32:45;;;;;;;14.03;5.80;;;;;;;17.26;81.41;101649.25;5076067;28;20056;-62
2021/07/16 04:35:14;;;;;;;16.58;6.47;;;;;;;17.14;82.15;101638.00;5058287;28;20577;-61
2021/07/16 04:37:43;;;;;;;13.73;5.97;;;;;;;17.34;81.79;101663.13;5075971;28;20407;-61
2021/07/16 04:40:12;;;;;;;14.95;5.90;;;;;;;17.32;81.89;101654.28;5075725;28;20043;-61
2021/07/16 04:42:39;;;;;;;10.13;5.05;;;;;;;17.46;81.33;101660.47;5076064;28;20055;-60
2021/07/16 04:45:07;;;;;;;11.10;6.15;;;;;;;17.35;81.71;101655.56;5075872;28;20052;-61
2021/07/16 04:47:35;;;;;;;12.35;5.82;;;;;;;17.36;81.95;101660.00;5075528;28;20057;-61
2021/07/16 04:50:03;;;;;;;12.50;6.22;;;;;;;17.45;81.54;101658.78;5057810;28;20399;-61
2021/07/16 04:52:30;;;;;;;15.27;5.93;;;;;;;17.29;82.24;101662.50;5075567;28;20067;-62
2021/07/16 04:54:57;;;;;;;17.15;6.40;;;;;;;17.29;82.94;101663.31;5057721;28;20048;-61
2021/07/16 04:57:24;;;;;;;14.05;5.68;;;;;;;17.52;81.86;101664.66;5091601;28;20055;-62
2021/07/16 04:59:51;;;;;;;11.20;5.72;;;;;;;17.48;81.73;101671.28;5095724;28;20063;-62
2021/07/16 05:02:18;;;;;;;13.30;5.95;;;;;;;17.08;83.63;101675.53;5083005;28;20562;-61
2021/07/16 05:04:46;;;;;;;16.13;6.07;;;;;;;17.32;83.10;101665.44;5076566;28;20063;-62
2021/07/16 05:07:14;;;;;;;11.95;5.35;;;;;;;17.14;83.77;101666.66;5095790;28;20568;-62
2021/07/16 05:09:42;;;;;;;12.00;6.05;;;;;;;17.09;84.03;101661.28;5095871;28;20059;-62
2021/07/16 05:12:09;;;;;;;13.70;5.88;;;;;;;17.35;83.71;101661.97;5095863;28;20057;-62
2021/07/16 05:14:36;;;;;;;13.77;5.97;;;;;;;17.28;83.30;101663.63;5095637;28;20071;-62
2021/07/16 05:17:04;;;;;;;14.25;6.40;;;;;;;17.04;84.16;101674.56;5095705;28;20056;-61
2021/07/16 05:19:31;;;;;;;14.55;5.72;;;;;;;17.20;83.86;101670.06;5076493;28;20440;-62
2021/07/16 05:21:58;;;;;;;13.15;5.50;;;;;;;17.28;83.23;101663.63;5095266;28;20048;-61
2021/07/16 05:24:26;;;;;;;16.05;6.05;;;;;;;17.42;82.84;101669.78;5077161;28;20056;-61
2021/07/16 05:26:54;;;;;;;16.52;6.22;;;;;;;17.59;81.76;101680.88;5095142;28;20044;-61
2021/07/16 05:29:21;;;;;;;15.63;6.47;;;;;;;17.27;82.66;101687.91;5094987;28;20055;-62
2021/07/16 05:31:48;;;;;;;12.30;5.80;;;;;;;17.05;84.15;101682.56;5095160;28;20047;-63
2021/07/16 05:34:16;;;;;;;14.70;6.28;;;;;;;16.79;85.62;101684.63;5060005;28;20419;-62
2021/07/16 05:36:43;;;;;;;10.52;6.20;;;;;;;16.86;85.43;101680.19;5094956;28;20054;-61
2021/07/16 05:39:10;;;;;;;10.70;5.80;;;;;;;16.88;85.47;101688.19;5090170;28;20063;-61
2021/07/16 05:41:38;;;;;;;12.45;5.82;;;;;;;17.03;85.62;101682.09;5072009;28;20048;-62
2021/07/16 05:44:05;;;;;;;14.65;6.05;;;;;;;17.11;84.48;101688.78;5074557;28;20059;-62
2021/07/16 05:46:33;;;;;;;11.57;6.35;;;;;;;17.08;84.49;101684.72;5074671;28;20049;-62
2021/07/16 05:49:02;;;;;;;16.30;6.35;;;;;;;16.99;84.70;101689.47;5074028;28;20044;-61
2021/07/16 05:51:29;;;;;;;13.15;6.35;;;;;;;16.68;86.79;101677.78;5074395;28;20067;-66
2021/07/16 05:53:56;;;;;;;14.25;6.05;;;;;;;16.83;86.25;101697.56;5074549;28;20053;-62
2021/07/16 05:56:24;;;;;;;13.18;6.38;;;;;;;16.83;85.79;101692.00;5082371;28;20047;-61
2021/07/16 05:58:51;;;;;;;12.85;6.05;;;;;;;17.01;84.87;101708.63;5079556;28;20044;-60
2021/07/16 06:01:18;;;;;;;9.82;5.47;;;;;;;16.96;85.25;101706.84;5074538;28;20411;-62
2021/07/16 06:03:46;;;;;;;16.55;6.45;;;;;;;16.93;85.24;101701.13;5074111;28;20515;-61
2021/07/16 06:06:13;;;;;;;12.80;5.70;;;;;;;17.02;84.88;101705.50;5073799;28;20056;-61
2021/07/16 06:08:40;;;;;;;11.88;5.78;;;;;;;17.42;83.87;101704.03;5056016;28;20059;-61
2021/07/16 06:11:07;;;;;;;11.90;5.10;;;;;;;16.97;84.12;101708.47;5074365;28;20040;-61
2021/07/16 06:13:35;;;;;;;12.10;5.80;;;;;;;17.21;83.57;101725.41;5074322;28;20045;-61
2021/07/16 06:16:02;;;;;;;10.75;5.70;;;;;;;17.03;83.67;101717.47;5074121;28;20463;-62
2021/07/16 06:18:30;;;;;;;10.82;5.05;;;;;;;16.89;83.75;101712.13;5056810;28;20051;-61
2021/07/16 06:20:57;;;;;;;9.48;5.13;;;;;;;16.88;83.89;101716.03;5073973;28;20503;-61
2021/07/16 06:23:24;;;;;;;9.25;4.68;;;;;;;17.00;83.66;101718.16;5073453;28;20052;-61
2021/07/16 06:25:52;;;;;;;11.20;4.93;;;;;;;17.15;82.30;101715.63;5082517;28;20048;-61
2021/07/16 06:28:19;;;;;;;8.63;4.93;;;;;;;16.97;83.22;101722.41;5048440;28;20052;-61
2021/07/16 06:30:47;;;;;;;10.35;4.88;;;;;;;16.94;83.70;101725.03;5058041;28;20057;-62
2021/07/16 06:33:14;;;;;;;10.27;4.90;;;;;;;16.79;84.11;101718.84;5055671;28;20060;-62
2021/07/16 06:35:42;;;;;;;7.45;4.57;;;;;;;16.92;83.80;101739.28;5060371;28;20084;-62
2021/07/16 06:38:09;;;;;;;9.05;4.68;;;;;;;17.09;83.25;101730.03;5045433;28;20040;-63
2021/07/16 06:40:36;;;;;;;9.13;4.43;;;;;;;17.46;82.05;101732.88;5067150;28;20041;-62
2021/07/16 06:43:09;;;;;;;8.95;3.95;;;;;;;17.70;80.56;101737.84;5066117;28;20053;-62
2021/07/16 06:45:37;;;;;;;9.25;3.80;;;;;;;17.37;80.80;101750.75;5047507;28;20049;-62
2021/07/16 06:48:05;;;;;;;6.60;4.00;;;;;;;17.28;82.59;101741.59;5072483;28;20061;-62
2021/07/16 06:50:33;;;;;;;7.88;4.15;;;;;;;17.38;82.33;101753.19;5073633;28;20051;-62
2021/07/16 06:53:00;;;;;;;7.63;4.13;;;;;;;17.33;83.01;101749.81;5055712;28;20518;-63
2021/07/16 06:55:28;;;;;;;9.50;4.28;;;;;;;17.20;83.92;101739.69;5069445;28;20044;-62
2021/07/16 06:57:55;;;;;;;10.75;5.18;;;;;;;17.45;82.47;101756.28;5065745;28;20048;-63
2021/07/16 07:00:22;;;;;;;9.73;4.45;;;;;;;17.16;83.41;101764.59;5059559;28;20064;-63
2021/07/16 07:02:49;;;;;;;6.85;4.03;;;;;;;17.18;84.04;101751.16;5073542;28;20049;-62
2021/07/16 07:05:19;;;;;;;13.25;4.63;;;;;;;17.13;83.63;101748.56;5072068;28;20052;-61
2021/07/16 07:07:47;;;;;;;10.07;4.15;;;;;;;17.05;83.55;101759.72;5020362;28;20059;-62
2021/07/16 07:10:14;;;;;;;9.60;4.75;;;;;;;17.31;83.83;101752.88;5068991;28;20048;-62
2021/07/16 07:12:42;;;;;;;12.48;4.30;;;;;;;17.37;82.13;101761.88;5073415;28;20061;-62
2021/07/16 07:15:10;;;;;;;8.20;4.10;;;;;;;16.88;84.28;101756.97;5068518;28;20045;-61
2021/07/16 07:17:42;;;;;;;10.23;3.75;;;;;;;16.86;84.67;101773.97;5063299;28;20053;-62
2021/07/16 07:20:10;;;;;;;11.38;4.03;;;;;;;16.88;85.22;101768.91;5072014;28;20044;-62
2021/07/16 07:22:37;;;;;;;7.03;4.20;;;;;;;16.99;84.49;101766.59;5054928;28;20056;-64
2021/07/16 07:25:05;;;;;;;11.77;4.07;;;;;;;16.98;84.69;101759.41;5037515;28;20087;-62
2021/07/16 07:27:32;;;;;;;10.30;4.32;;;;;;;17.26;83.64;101771.78;5073421;28;20056;-64
2021/07/16 07:30:00;;;;;;;9.40;4.50;;;;;;;17.10;82.99;101770.66;5073337;28;20072;-63
2021/07/16 07:32:28;;;;;;;6.40;3.00;;;;;;;17.01;82.66;101772.66;5073390;28;20045;-62
2021/07/16 07:34:55;;;;;;;9.75;4.00;;;;;;;17.16;81.79;101760.97;5072782;28;20049;-64
2021/07/16 07:37:22;;;;;;;7.10;3.30;;;;;;;17.40;80.21;101767.59;5077000;28;20051;-64
2021/07/16 07:39:50;;;;;;;6.63;2.65;;;;;;;17.54;79.06;101773.00;5067889;28;20041;-64
2021/07/16 07:42:21;;;;;;;6.03;2.42;;;;;;;17.31;79.11;101764.03;5071336;28;20506;-63
2021/07/16 07:44:49;;;;;;;4.88;2.15;;;;;;;17.37;78.18;101761.88;5064873;28;20055;-63
2021/07/16 07:47:16;;;;;;;6.60;2.55;;;;;;;17.72;77.40;101783.72;5082685;28;20047;-63
2021/07/16 07:49:43;;;;;;;7.75;1.85;;;;;;;17.57;76.08;101770.34;5064406;28;20053;-61
2021/07/16 07:52:11;;;;;;;4.97;2.25;;;;;;;17.76;75.73;101758.78;5074123;28;20542;-62
2021/07/16 07:54:38;;;;;;;7.45;2.00;;;;;;;17.92;74.47;101763.44;5062098;28;20056;-62
2021/07/16 07:57:05;;;;;;;10.63;2.30;;;;;;;18.55;73.35;101767.91;5090560;28;20047;-63
2021/07/16 07:59:32;;;;;;;7.07;2.50;;;;;;;18.39;72.79;101763.28;5078332;28;20052;-62
2021/07/16 08:02:00;;;;;;;9.95;3.10;;;;;;;17.94;74.79;101763.09;5096273;28;20048;-64
2021/07/16 08:04:27;;;;;;;8.63;2.90;;;;;;;17.68;76.00;101779.97;5084664;28;20533;-64
2021/07/16 08:06:55;;;;;;;7.97;2.25;;;;;;;18.03;75.07;101775.00;5076098;28;20056;-63
2021/07/16 08:09:23;;;;;;;5.97;2.42;;;;;;;17.87;74.91;101782.31;5058265;28;20056;-62
2021/07/16 08:11:50;;;;;;;8.43;2.20;;;;;;;17.85;74.88;101777.09;5046733;28;20048;-62
2021/07/16 08:14:17;;;;;;;5.28;2.60;;;;;;;17.86;74.66;101775.94;5067695;28;20511;-62
2021/07/16 08:16:46;;;;;;;5.30;2.08;;;;;;;18.10;74.33;101782.88;5061119;28;20428;-62
2021/07/16 08:19:17;;;;;;;7.30;2.40;;;;;;;18.39;72.97;101785.59;5059517;28;20063;-63
2021/07/16 08:21:49;;;;;;;8.98;2.78;;;;;;;18.28;72.56;101785.19;5075573;28;20039;-63
2021/07/16 08:24:17;;;;;;;8.35;2.53;;;;;;;18.03;73.21;101788.97;5068496;28;20535;-62
2021/07/16 08:26:46;;;;;;;4.80;2.00;;;;;;;18.04;73.49;101789.78;5062754;28;20051;-62
2021/07/16 08:29:15;;;;;;;7.13;2.33;;;;;;;18.04;74.49;101798.16;5072929;28;20056;-62
2021/07/16 08:31:43;;;;;;;6.13;2.45;;;;;;;17.81;75.09;101805.97;5064504;28;20037;-62
2021/07/16 08:34:10;;;;;;;10.88;3.83;;;;;;;17.84;75.61;101808.09;5075191;28;20052;-62
2021/07/16 08:36:38;;;;;;;6.88;3.25;;;;;;;17.76;75.76;101803.38;5056450;28;20506;-62
2021/07/16 08:39:05;;;;;;;9.27;2.42;;;;;;;18.02;75.12;101792.91;5070162;28;20044;-64
2021/07/16 08:41:33;;;;;;;9.88;2.78;;;;;;;17.88;75.99;101801.53;5082694;28;20044;-62
2021/07/16 08:44:01;;;;;;;4.63;2.53;;;;;;;18.11;74.99;101804.00;5083073;28;20514;-62
2021/07/16 08:46:28;;;;;;;8.02;2.10;;;;;;;17.90;75.63;101806.75;5083502;28;20044;-62
2021/07/16 08:48:58;;;;;;;6.82;2.55;;;;;;;18.33;74.27;101804.50;5082093;28;20044;-62
2021/07/16 08:51:26;;;;;;;4.80;2.15;;;;;;;18.15;73.82;101807.75;5083042;28;20053;-62
2021/07/16 08:53:55;;;;;;;8.30;2.22;;;;;;;18.43;73.37;101801.34;5083104;28;20124;-62
2021/07/16 08:56:24;;;;;;;;;;;;;;;18.01;74.41;101799.63;5084478;28;20056;-62
2021/07/16 08:58:51;;;;;;;3.38;1.90;;;;;;;18.13;73.50;101796.13;5083263;28;19920;-61
2021/07/16 09:01:19;;;;;;;4.70;1.80;;;;;;;18.08;72.92;101805.47;5065170;28;20548;-62
2021/07/16 09:04:00;;;;;;;5.57;1.85;;;;;;;17.83;74.08;101812.03;5083038;28;20047;-62
2021/07/16 09:06:50;;;;;;;7.50;2.10;;;;;;;18.11;73.47;101801.22;5082776;28;20051;-62
2021/07/16 09:09:38;;;;;;;7.40;2.10;;;;;;;18.29;72.76;101805.53;5083211;28;20051;-62
2021/07/16 09:12:09;;;;;;;5.53;2.10;;;;;;;18.19;72.47;101805.91;5065670;28;20661;-63
2021/07/16 09:14:36;;;;;;;11.48;2.40;;;;;;;17.97;74.07;101815.41;5081099;28;20364;-62
2021/07/16 09:17:15;;;;;;;7.35;2.35;;;;;;;17.97;74.58;101826.56;5083182;28;20048;-63
2021/07/16 09:19:44;;;;;;;10.20;3.15;;;;;;;17.85;75.58;101834.81;5082543;28;20049;-62
2021/07/16 09:22:17;;;;;;;6.35;3.20;;;;;;;17.64;76.90;101831.94;5082950;28;20052;-61
2021/07/16 09:24:51;;;;;;;12.68;3.85;;;;;;;17.46;77.15;101835.09;5084057;28;20052;-62
2021/07/16 09:27:36;;;;;;;14.80;4.30;;;;;;;17.15;79.35;101835.34;5082780;28;20052;-61
2021/07/16 09:30:18;;;;;;;9.57;4.10;;;;;;;17.39;78.42;101840.38;5082246;28;20051;-63
2021/07/16 09:32:56;;;;;;;10.52;4.15;;;;;;;17.36;78.21;101833.50;5082178;28;20043;-63
2021/07/16 09:35:27;;;;;;;10.68;4.63;;;;;;;17.11;79.38;101839.09;5081981;28;20044;-62
2021/07/16 09:38:03;;;;;;;15.18;5.72;;;;;;;17.32;78.37;101840.06;5081394;28;20056;-63
2021/07/16 09:40:32;;;;;;;10.70;5.65;;;;;;;17.09;79.07;101835.84;5062162;28;20407;-62
2021/07/16 09:43:04;;;;;;;11.73;5.05;;;;;;;17.14;79.05;101842.06;5081212;28;20052;-62
2021/07/16 09:45:32;;;;;;;13.98;6.45;;;;;;;16.78;80.93;101842.44;5081637;28;20053;-63
2021/07/16 09:48:24;;;;;;;15.68;4.93;;;;;;;17.20;79.30;101839.91;5082364;28;20062;-62
2021/07/16 09:51:13;;;;;;;15.50;4.90;;;;;;;16.97;79.26;101852.38;5065116;28;20495;-62
2021/07/16 09:53:50;;;;;;;11.32;4.63;;;;;;;16.74;80.64;101862.88;5083461;28;20064;-64
2021/07/16 09:56:22;;;;;;;11.85;4.53;;;;;;;16.57;81.99;101846.19;5064861;28;20045;-62
2021/07/16 09:59:00;;;;;;;11.63;4.72;;;;;;;16.59;80.56;101850.28;5081006;28;20063;-61
2021/07/16 10:01:28;;;;;;;8.23;3.88;;;;;;;16.72;79.84;101860.41;5081316;28;20147;-61
2021/07/16 10:04:01;;;;;;;9.50;3.88;;;;;;;16.58;80.35;101845.06;5082233;28;20052;-61
2021/07/16 10:06:29;;;;;;;12.25;3.75;;;;;;;16.71;78.87;101855.19;5082048;28;20047;-61
2021/07/16 10:08:57;;;;;;;12.27;3.95;;;;;;;16.87;78.18;101848.00;5064422;28;20052;-62
2021/07/16 10:11:27;;;;;;;9.10;4.15;;;;;;;16.77;77.63;101853.91;5082849;28;20511;-61
2021/07/16 10:13:56;;;;;;;10.20;3.67;;;;;;;17.05;76.36;101844.03;5083597;28;20525;-61
2021/07/16 10:16:24;;;;;;;7.05;3.47;;;;;;;17.01;76.67;101843.06;5064692;28;20076;-61
2021/07/16 10:18:52;;;;;;;10.13;4.20;;;;;;;17.28;76.42;101848.25;5082095;28;20060;-62
2021/07/16 10:21:21;;;;;;;8.95;4.03;;;;;;;17.63;74.73;101849.81;5081996;28;20051;-61
2021/07/16 10:23:50;;;;;;;8.25;3.92;;;;;;;17.89;73.25;101856.09;5082845;28;20044;-61
2021/07/16 10:26:19;;;;;;;11.25;3.70;;;;;;;17.83;73.23;101853.84;5063962;28;20071;-61
2021/07/16 10:28:47;;;;;;;10.57;4.07;;;;;;;17.28;75.24;101861.34;5064605;28;20051;-62
2021/07/16 10:31:32;;;;;;;7.60;4.10;;;;;;;17.32;75.21;101849.22;5081039;28;20751;-61
2021/07/16 10:34:02;;;;;;;10.38;4.22;;;;;;;17.44;74.31;101851.31;5080739;28;20055;-62
2021/07/16 10:36:38;;;;;;;9.60;4.13;;;;;;;17.46;73.74;101861.03;5081269;28;20063;-62
2021/07/16 10:39:06;;;;;;;9.10;4.15;;;;;;;17.35;74.94;101862.50;5081449;28;20060;-61
2021/07/16 10:41:38;;;;;;;8.57;4.18;;;;;;;17.25;75.29;101845.31;5082823;28;20047;-62
2021/07/16 10:44:05;;;;;;;15.77;4.20;;;;;;;17.60;74.22;101861.66;5063670;28;20052;-61
2021/07/16 10:46:37;;;;;;;11.23;4.38;;;;;;;17.69;72.41;101864.41;5082350;28;20071;-62
2021/07/16 10:49:08;;;;;;;14.55;5.25;;;;;;;18.10;71.57;101867.31;5062022;28;20062;-61
2021/07/16 10:51:40;;;;;;;14.57;4.50;;;;;;;17.94;70.92;101871.81;5044643;28;20052;-61
2021/07/16 10:54:10;;;;;;;9.18;4.07;;;;;;;17.50;72.08;101887.09;5063792;28;20059;-60
2021/07/16 10:56:47;;;;;;;10.60;5.45;;;;;;;17.26;73.49;101883.97;5080437;28;20048;-61
2021/07/16 10:59:45;;;;;;;11.75;5.28;;;;;;;17.38;72.94;101880.53;5082748;28;20063;-61
2021/07/16 11:02:37;;;;;;;9.38;4.88;;;;;;;17.19;73.23;101880.84;5080830;28;20420;-60
2021/07/16 11:05:34;;;;;;;13.98;6.00;;;;;;;17.29;73.09;101890.84;5081183;28;20052;-63
2021/07/16 11:08:03;;;;;;;12.18;5.25;;;;;;;17.43;72.83;101883.94;5081550;28;20040;-63
2021/07/16 11:10:47;;;;;;;11.80;5.95;;;;;;;17.73;71.30;101888.47;5083803;28;20044;-61
2021/07/16 11:13:33;;;;;;;19.65;6.18;;;;;;;17.68;71.20;101885.88;5085858;28;20048;-61
2021/07/16 11:16:24;;;;;;;12.65;6.03;;;;;;;17.65;71.72;101896.84;5085600;28;20048;-62
2021/07/16 11:18:59;;;;;;;15.50;6.22;;;;;;;17.72;70.89;101894.38;5067872;28;20055;-61
2021/07/16 11:21:42;;;;;;;17.83;6.75;;;;;;;17.64;71.08;101898.03;5085467;28;20059;-62
2021/07/16 11:24:15;;;;;;;12.57;6.68;;;;;;;17.55;71.59;101900.84;5086550;28;20666;-60
2021/07/16 11:26:53;;;;;;;13.23;6.00;;;;;;;17.62;70.51;101901.16;5085680;28;20060;-61
2021/07/16 11:29:26;;;;;;;13.27;6.95;;;;;;;17.34;71.53;101891.50;5085408;28;20122;-62